Time;durP1;ratioP1;P1;durP2;ratioP2;P2;SDS_P1;SDS_P2;PMS_P1;PMS_P2;Temp;Humidity;BMP_temperature;BMP_pressure;BME280_temperature;BME280_humidity;BME280_pressure;Samples;Min_cycle;Max_cycle;Signal;HPM_P1;HPM_P2
2023/12/19 00:02:19;;;;;;;;;;;;;;;3.55;65.53;99122.84;5005379;28;20013;-64
2023/12/19 00:05:09;;;;;;;;;;;;;;;3.59;64.99;99125.91;5007050;28;19933;-63
2023/12/19 00:07:59;;;;;;;;;;;;;;;3.54;65.41;99126.59;5002628;28;19932;-63
2023/12/19 00:10:47;;;;;;;;;;;;;;;3.43;65.55;99132.81;5003670;28;19977;-64
2023/12/19 00:13:35;;;;;;;;;;;;;;;3.38;65.87;99124.63;5005791;28;19984;-63
2023/12/19 00:16:23;;;;;;;;;;;;;;;3.30;66.38;99122.28;5001866;28;19929;-63
2023/12/19 00:19:11;;;;;;;;;;;;;;;3.28;66.25;99133.28;5000374;28;19949;-63
2023/12/19 00:22:02;;;;;;;;;;;;;;;3.35;65.85;99122.41;5006606;28;19929;-63
2023/12/19 00:24:50;;;;;;;;;;;;;;;3.40;65.58;99130.56;5007352;28;19925;-63
2023/12/19 00:27:38;;;;;;;;;;;;;;;3.41;65.65;99124.19;4995580;28;19930;-63
2023/12/19 00:30:26;;;;;;;;;;;;;;;3.38;65.53;99121.94;5005306;28;19932;-64
2023/12/19 00:33:18;;;;;;;;;;;;;;;3.39;65.68;99107.47;5006487;28;19929;-64
2023/12/19 00:36:06;;;;;;;;;;;;;;;3.35;65.93;99104.41;5003659;28;20019;-62
2023/12/19 00:38:55;;;;;;;;;;;;;;;3.12;66.68;99099.88;5003141;28;19944;-64
2023/12/19 00:41:43;;;;;;;;;;;;;;;3.24;66.70;99105.25;4999704;28;19925;-62
2023/12/19 00:44:31;;;;;;;;;;;;;;;3.29;66.45;99099.16;5001935;28;20023;-63
2023/12/19 00:47:20;;;;;;;;;;;;;;;3.25;66.56;99106.06;5004290;28;19926;-63
2023/12/19 00:50:08;;;;;;;;;;;;;;;3.32;66.44;99114.84;5006111;28;20402;-64
2023/12/19 00:52:56;;;;;;;;;;;;;;;3.29;66.30;99120.66;5008792;28;19926;-63
2023/12/19 00:55:46;;;;;;;;;;;;;;;3.26;66.47;99111.22;5004196;28;20536;-64
2023/12/19 00:58:34;;;;;;;;;;;;;;;3.24;66.70;99110.63;5006252;28;19925;-63
2023/12/19 01:01:23;;;;;;;;;;;;;;;3.25;66.81;99104.22;5006226;28;20544;-63
2023/12/19 01:04:12;;;;;;;;;;;;;;;3.25;66.68;99114.97;5005376;28;19929;-63
2023/12/19 01:07:00;;;;;;;;;;;;;;;3.04;67.14;99111.00;5009679;28;20337;-63
2023/12/19 01:09:48;;;;;;;;;;;;;;;3.13;66.73;99101.50;5008418;28;19925;-63
2023/12/19 01:12:37;;;;;;;;;;;;;;;3.17;66.45;99103.75;5006910;28;19926;-63
2023/12/19 01:15:26;;;;;;;;;;;;;;;3.21;66.78;99097.66;5004364;28;19926;-64
2023/12/19 01:18:14;;;;;;;;;;;;;;;3.27;66.11;99112.84;5007317;28;19941;-65
2023/12/19 01:21:02;;;;;;;;;;;;;;;3.28;66.05;99127.09;5005709;28;19933;-64
2023/12/19 01:23:50;;;;;;;;;;;;;;;3.24;65.92;99117.84;5004473;28;19935;-64
2023/12/19 01:26:38;;;;;;;;;;;;;;;3.20;66.04;99114.03;5002526;28;19933;-64
2023/12/19 01:29:28;;;;;;;;;;;;;;;3.19;65.97;99115.06;5008232;28;19925;-64
2023/12/19 01:32:17;;;;;;;;;;;;;;;3.25;65.86;99106.06;5006511;28;20515;-63
2023/12/19 01:35:05;;;;;;;;;;;;;;;3.23;65.82;99090.19;5007473;28;19929;-63
2023/12/19 01:37:53;;;;;;;;;;;;;;;3.21;66.52;99086.94;5002412;28;19932;-62
2023/12/19 01:40:45;;;;;;;;;;;;;;;3.27;66.56;99093.22;5003428;28;19929;-63
2023/12/19 01:43:33;;;;;;;;;;;;;;;3.26;66.43;99088.91;5003195;28;20026;-64
2023/12/19 01:46:22;;;;;;;;;;;;;;;3.17;66.91;99085.75;5005600;28;19983;-64
2023/12/19 01:49:10;;;;;;;;;;;;;;;3.11;66.66;99095.56;5008148;28;20695;-63
2023/12/19 01:51:59;;;;;;;;;;;;;;;3.27;66.50;99091.34;5002739;28;19936;-63
2023/12/19 01:54:47;;;;;;;;;;;;;;;3.40;65.76;99084.91;5006145;28;20008;-63
2023/12/19 01:57:35;;;;;;;;;;;;;;;3.49;65.51;99088.06;5005108;28;19933;-63
2023/12/19 02:00:24;;;;;;;;;;;;;;;3.54;65.42;99091.66;5006529;28;19933;-64
2023/12/19 02:03:14;;;;;;;;;;;;;;;3.55;65.15;99087.13;5007316;28;19969;-64
2023/12/19 02:06:02;;;;;;;;;;;;;;;3.57;65.54;99080.47;5008116;28;19926;-64
2023/12/19 02:08:51;;;;;;;;;;;;;;;3.60;65.18;99082.66;5006281;28;20302;-62
2023/12/19 02:11:41;;;;;;;;;;;;;;;3.63;64.96;99070.63;5005776;28;21730;-63
2023/12/19 02:14:30;;;;;;;;;;;;;;;3.63;64.61;99062.56;4998217;28;19977;-63
2023/12/19 02:17:18;;;;;;;;;;;;;;;3.58;64.65;99059.78;5003713;28;19929;-64
2023/12/19 02:20:08;;;;;;;;;;;;;;;3.63;65.25;99057.19;5006027;28;19988;-64
2023/12/19 02:22:58;;;;;;;;;;;;;;;3.62;65.25;99059.06;5003844;28;19934;-64
2023/12/19 02:25:47;;;;;;;;;;;;;;;3.63;65.02;99068.75;5008186;28;20294;-63
2023/12/19 02:28:35;;;;;;;;;;;;;;;3.57;65.06;99064.34;5004914;28;19936;-64
2023/12/19 02:31:23;;;;;;;;;;;;;;;3.55;65.32;99066.44;5001270;28;19991;-63
2023/12/19 02:34:12;;;;;;;;;;;;;;;3.53;65.65;99073.09;5005279;28;20379;-63
2023/12/19 02:37:01;;;;;;;;;;;;;;;3.51;65.57;99076.00;5003429;28;20016;-63
2023/12/19 02:39:50;;;;;;;;;;;;;;;3.55;65.44;99077.19;5010092;28;20459;-64
2023/12/19 02:42:40;;;;;;;;;;;;;;;3.55;65.40;99071.81;5003852;28;19979;-64
2023/12/19 02:45:31;;;;;;;;;;;;;;;3.69;64.98;99077.75;5006796;28;19925;-63
2023/12/19 02:48:20;;;;;;;;;;;;;;;3.68;64.80;99086.88;5008196;28;20299;-65
2023/12/19 02:51:08;;;;;;;;;;;;;;;3.60;64.73;99071.91;5006183;28;19977;-63
2023/12/19 02:53:57;;;;;;;;;;;;;;;3.65;65.17;99072.00;5000806;28;19952;-65
2023/12/19 02:56:46;;;;;;;;;;;;;;;3.58;65.47;99068.66;5003250;28;19925;-64
2023/12/19 02:59:34;;;;;;;;;;;;;;;3.49;65.63;99056.63;5006059;28;19936;-63
2023/12/19 03:02:22;;;;;;;;;;;;;;;3.54;65.57;99053.25;4995728;28;20365;-63
2023/12/19 03:05:13;;;;;;;;;;;;;;;3.59;65.25;99045.28;5003267;28;19930;-63
2023/12/19 03:08:01;;;;;;;;;;;;;;;3.60;65.30;99042.34;4997885;28;20554;-64
2023/12/19 03:10:49;;;;;;;;;;;;;;;3.63;64.71;99035.69;5003439;28;19987;-64
2023/12/19 03:13:38;;;;;;;;;;;;;;;3.64;65.00;99038.13;4998967;28;19930;-62
2023/12/19 03:16:26;;;;;;;;;;;;;;;3.57;65.16;99040.16;5005437;28;20296;-63
2023/12/19 03:19:14;;;;;;;;;;;;;;;3.55;65.57;99031.50;5004564;28;20304;-64
2023/12/19 03:22:03;;;;;;;;;;;;;;;3.59;65.43;99029.16;4999104;28;19933;-63
2023/12/19 03:24:53;;;;;;;;;;;;;;;3.59;65.20;99035.34;5004738;28;19991;-64
2023/12/19 03:27:41;;;;;;;;;;;;;;;3.50;65.03;99044.81;5007290;28;19929;-65
2023/12/19 03:30:31;;;;;;;;;;;;;;;3.53;65.39;99044.38;5000091;28;19930;-63
2023/12/19 03:33:19;;;;;;;;;;;;;;;3.54;65.43;99024.50;5004998;28;20276;-63
2023/12/19 03:36:07;;;;;;;;;;;;;;;3.51;65.78;99022.28;5001020;28;19930;-63
2023/12/19 03:38:55;;;;;;;;;;;;;;;3.47;65.78;99017.66;5004865;28;20406;-62
2023/12/19 03:41:43;;;;;;;;;;;;;;;3.49;65.80;99015.53;5002383;28;19932;-64
2023/12/19 03:44:51;;;;;;;;;;;;;;;3.60;65.43;99020.03;5002684;28;19930;-64
2023/12/19 03:47:41;;;;;;;;;;;;;;;3.60;65.52;99015.47;5005892;28;19926;-64
2023/12/19 03:50:29;;;;;;;;;;;;;;;3.64;65.61;99015.81;4999807;28;19937;-64
2023/12/19 03:53:17;;;;;;;;;;;;;;;3.45;65.67;99007.13;5001129;28;19940;-64
2023/12/19 03:56:05;;;;;;;;;;;;;;;3.55;65.87;99001.94;5002775;28;19925;-63
2023/12/19 03:58:53;;;;;;;;;;;;;;;3.56;65.75;99003.56;5005624;28;19925;-63
2023/12/19 04:01:45;;;;;;;;;;;;;;;3.62;65.17;98991.88;5004086;28;19977;-62
2023/12/19 04:04:34;;;;;;;;;;;;;;;3.66;65.14;98984.97;5008629;28;19925;-64
2023/12/19 04:07:22;;;;;;;;;;;;;;;3.70;65.13;98979.94;5003955;28;20307;-62
2023/12/19 04:10:10;;;;;;;;;;;;;;;3.77;65.01;98983.28;5001208;28;19933;-63
2023/12/19 04:12:58;;;;;;;;;;;;;;;3.77;64.56;98993.22;5005616;28;19925;-63
2023/12/19 04:15:47;;;;;;;;;;;;;;;3.78;64.72;98995.69;5000857;28;19948;-63
2023/12/19 04:18:35;;;;;;;;;;;;;;;3.83;64.63;98981.50;5004215;28;19926;-64
2023/12/19 04:21:24;;;;;;;;;;;;;;;3.79;64.60;98988.44;5009076;28;20336;-64
2023/12/19 04:24:14;;;;;;;;;;;;;;;3.81;64.68;98984.44;5003751;28;20273;-64
2023/12/19 04:27:03;;;;;;;;;;;;;;;3.81;64.02;98975.56;5007364;28;19933;-63
2023/12/19 04:29:54;;;;;;;;;;;;;;;3.80;64.23;98968.56;5008910;28;19930;-64
2023/12/19 04:32:43;;;;;;;;;;;;;;;3.85;63.86;98965.97;5006299;28;19926;-65
2023/12/19 04:35:31;;;;;;;;;;;;;;;3.78;63.70;98959.91;5007311;28;19929;-64
2023/12/19 04:38:21;;;;;;;;;;;;;;;3.78;64.20;98960.75;5008637;28;19929;-63
2023/12/19 04:41:09;;;;;;;;;;;;;;;3.75;63.82;98960.41;5007463;28;20295;-64
2023/12/19 04:43:57;;;;;;;;;;;;;;;3.78;63.71;98957.22;5006700;28;19980;-65
2023/12/19 04:46:46;;;;;;;;;;;;;;;3.75;63.61;98946.97;5008504;28;20429;-64
2023/12/19 04:49:34;;;;;;;;;;;;;;;3.72;63.43;98950.13;5008558;28;20414;-64
2023/12/19 04:52:22;;;;;;;;;;;;;;;3.43;63.46;98939.38;5005034;28;19926;-63
2023/12/19 04:55:12;;;;;;;;;;;;;;;3.56;64.01;98933.72;5007160;28;19925;-63
2023/12/19 04:58:00;;;;;;;;;;;;;;;3.61;63.95;98931.13;5010817;28;19925;-64
2023/12/19 05:00:51;;;;;;;;;;;;;;;3.46;64.03;98932.72;5007384;28;20076;-64
2023/12/19 05:03:41;;;;;;;;;;;;;;;3.42;64.73;98951.19;5004364;28;19937;-63
2023/12/19 05:06:30;;;;;;;;;;;;;;;3.55;64.44;98937.47;5005725;28;19944;-63
2023/12/19 05:09:18;;;;;;;;;;;;;;;3.57;64.23;98930.00;5005406;28;19936;-63
2023/12/19 05:12:08;;;;;;;;;;;;;;;3.59;64.13;98927.88;5007466;28;19926;-63
2023/12/19 05:14:56;;;;;;;;;;;;;;;3.61;64.23;98944.56;5005978;28;20379;-62
2023/12/19 05:17:44;;;;;;;;;;;;;;;3.70;64.06;98944.19;5003258;28;19926;-64
2023/12/19 05:20:35;;;;;;;;;;;;;;;3.82;63.26;98931.47;5002585;28;19926;-63
2023/12/19 05:23:23;;;;;;;;;;;;;;;3.92;62.86;98931.66;5005086;28;19932;-64
2023/12/19 05:26:11;;;;;;;;;;;;;;;3.96;62.87;98911.31;5002618;28;19944;-62
2023/12/19 05:29:00;;;;;;;;;;;;;;;4.01;62.69;98915.97;5000129;28;19926;-62
2023/12/19 05:31:48;;;;;;;;;;;;;;;4.10;62.61;98917.16;5003866;28;19930;-64
2023/12/19 05:34:36;;;;;;;;;;;;;;;4.10;62.22;98909.94;5007395;28;20338;-64
2023/12/19 05:37:24;;;;;;;;;;;;;;;4.15;61.95;98910.00;5007259;28;20368;-64
2023/12/19 05:40:13;;;;;;;;;;;;;;;4.17;61.48;98907.88;5005120;28;19936;-63
2023/12/19 05:43:01;;;;;;;;;;;;;;;4.27;61.22;98903.72;5005259;28;19988;-64
2023/12/19 05:45:51;;;;;;;;;;;;;;;4.22;61.45;98900.97;5004154;28;19933;-63
2023/12/19 05:48:40;;;;;;;;;;;;;;;4.17;61.33;98897.13;4997542;28;19926;-62
2023/12/19 05:51:31;;;;;;;;;;;;;;;4.24;61.30;98890.75;5000693;28;19944;-64
2023/12/19 05:54:20;;;;;;;;;;;;;;;4.31;60.82;98892.22;4997451;28;19934;-64
2023/12/19 05:57:08;;;;;;;;;;;;;;;4.31;60.52;98899.47;5001096;28;19930;-63
2023/12/19 05:59:56;;;;;;;;;;;;;;;4.28;60.75;98891.91;4996445;28;19934;-64
2023/12/19 06:02:46;;;;;;;;;;;;;;;4.27;60.91;98895.66;5007239;28;19925;-64
2023/12/19 06:05:37;;;;;;;;;;;;;;;4.27;60.69;98901.03;5003273;28;19926;-65
2023/12/19 06:08:25;;;;;;;;;;;;;;;4.20;60.97;98893.13;5005991;28;19926;-65
2023/12/19 06:11:13;;;;;;;;;;;;;;;4.15;61.54;98899.22;5004460;28;20407;-65
2023/12/19 06:14:02;;;;;;;;;;;;;;;4.17;61.11;98901.69;5008715;28;19925;-65
2023/12/19 06:16:51;;;;;;;;;;;;;;;4.22;60.90;98909.84;5003741;28;19937;-62
2023/12/19 06:19:40;;;;;;;;;;;;;;;4.21;61.45;98916.28;5007979;28;19937;-65
2023/12/19 06:22:28;;;;;;;;;;;;;;;4.30;60.93;98911.28;5008050;28;19930;-65
2023/12/19 06:25:17;;;;;;;;;;;;;;;4.32;60.66;98910.00;4998647;28;20384;-63
2023/12/19 06:28:05;;;;;;;;;;;;;;;4.42;60.70;98914.69;5004182;28;20404;-65
2023/12/19 06:30:54;;;;;;;;;;;;;;;4.47;60.55;98906.69;5003276;28;19944;-65
2023/12/19 06:33:43;;;;;;;;;;;;;;;4.50;59.83;98900.84;5003760;28;19925;-64
2023/12/19 06:36:33;;;;;;;;;;;;;;;4.55;59.80;98906.28;4999442;28;19932;-64
2023/12/19 06:39:21;;;;;;;;;;;;;;;4.58;60.07;98903.13;5001042;28;19933;-64
2023/12/19 06:42:09;;;;;;;;;;;;;;;4.61;60.00;98899.09;4999420;28;19938;-64
2023/12/19 06:44:57;;;;;;;;;;;;;;;4.63;59.61;98905.03;5004430;28;20521;-64
2023/12/19 06:47:45;;;;;;;;;;;;;;;4.66;59.35;98893.78;5003408;28;20020;-62
2023/12/19 06:50:33;;;;;;;;;;;;;;;4.71;59.48;98891.16;5000665;28;19930;-63
2023/12/19 06:53:23;;;;;;;;;;;;;;;4.77;58.88;98890.16;5003695;28;19951;-63
2023/12/19 06:56:11;;;;;;;;;;;;;;;4.85;58.50;98887.06;4999928;28;19930;-62
2023/12/19 06:59:01;;;;;;;;;;;;;;;4.84;58.68;98887.28;5009362;28;20299;-63
2023/12/19 07:01:49;;;;;;;;;;;;;;;4.85;58.65;98889.75;5004907;28;19930;-64
2023/12/19 07:04:37;;;;;;;;;;;;;;;4.88;57.89;98885.72;5006985;28;19929;-62
2023/12/19 07:07:25;;;;;;;;;;;;;;;4.83;58.17;98888.34;5005666;28;20016;-63
2023/12/19 07:10:15;;;;;;;;;;;;;;;4.80;58.65;98889.69;5000560;28;19925;-63
2023/12/19 07:13:03;;;;;;;;;;;;;;;4.82;58.33;98892.94;5002404;28;20008;-63
2023/12/19 07:15:51;;;;;;;;;;;;;;;4.76;58.85;98893.13;4997731;28;19930;-63
2023/12/19 07:18:40;;;;;;;;;;;;;;;4.75;58.49;98902.25;5002186;28;19929;-62
2023/12/19 07:21:29;;;;;;;;;;;;;;;4.59;58.45;98899.34;5000073;28;19936;-65
2023/12/19 07:24:17;;;;;;;;;;;;;;;4.52;59.21;98909.47;5009440;28;19975;-62
2023/12/19 07:27:07;;;;;;;;;;;;;;;4.57;59.32;98909.53;5003458;28;19930;-62
2023/12/19 07:29:56;;;;;;;;;;;;;;;4.63;58.93;98915.81;5004619;28;19979;-63
2023/12/19 07:32:44;;;;;;;;;;;;;;;4.66;58.53;98913.44;4997485;28;19926;-63
2023/12/19 07:35:33;;;;;;;;;;;;;;;4.69;59.04;98912.97;5000525;28;19926;-62
2023/12/19 07:38:21;;;;;;;;;;;;;;;4.75;58.92;98913.03;4999449;28;19933;-63
2023/12/19 07:41:09;;;;;;;;;;;;;;;4.78;58.95;98907.13;5007489;28;20023;-63
2023/12/19 07:43:59;;;;;;;;;;;;;;;4.80;58.71;98900.44;5000609;28;20368;-63
2023/12/19 07:46:47;;;;;;;;;;;;;;;4.78;58.68;98896.38;4996357;28;19925;-64
2023/12/19 07:49:35;;;;;;;;;;;;;;;4.80;58.81;98899.63;5004378;28;20360;-62
2023/12/19 07:52:23;;;;;;;;;;;;;;;4.84;58.86;98893.47;4999270;28;19957;-62
2023/12/19 07:55:12;;;;;;;;;;;;;;;4.85;58.49;98900.53;5009699;28;19933;-62
2023/12/19 07:58:00;;;;;;;;;;;;;;;4.90;58.80;98899.75;5006444;28;19957;-63
2023/12/19 08:00:50;;;;;;;;;;;;;;;4.96;58.97;98901.47;5005789;28;19932;-62
2023/12/19 08:03:38;;;;;;;;;;;;;;;5.00;59.04;98892.59;5008139;28;19930;-62
2023/12/19 08:06:26;;;;;;;;;;;;;;;5.08;58.87;98896.75;5004908;28;19951;-62
2023/12/19 08:09:15;;;;;;;;;;;;;;;5.13;58.28;98893.31;5006452;28;19940;-62
2023/12/19 08:12:03;;;;;;;;;;;;;;;5.17;58.18;98900.66;5006654;28;19933;-63
2023/12/19 08:14:51;;;;;;;;;;;;;;;5.25;58.46;98902.06;5006476;28;19991;-63
2023/12/19 08:17:42;;;;;;;;;;;;;;;5.31;57.92;98909.13;5005597;28;19925;-62
2023/12/19 08:20:30;;;;;;;;;;;;;;;5.40;57.38;98891.44;5007938;28;20031;-62
2023/12/19 08:23:18;;;;;;;;;;;;;;;5.42;57.51;98885.81;5007598;28;20236;-62
2023/12/19 08:26:08;;;;;;;;;;;;;;;5.44;57.55;98881.00;5005457;28;19972;-63
2023/12/19 08:28:56;;;;;;;;;;;;;;;5.45;57.51;98878.03;4998983;28;20071;-63
2023/12/19 08:31:45;;;;;;;;;;;;;;;5.46;57.46;98870.75;5006528;28;19929;-62
2023/12/19 08:34:35;;;;;;;;;;;;;;;5.46;57.32;98870.75;5005620;28;19932;-63
2023/12/19 08:37:23;;;;;;;;;;;;;;;5.48;57.17;98861.34;5008734;28;19934;-62
2023/12/19 08:40:12;;;;;;;;;;;;;;;5.46;57.02;98843.81;5006742;28;19971;-62
2023/12/19 08:43:00;;;;;;;;;;;;;;;5.49;56.76;98843.31;5000159;28;19933;-63
2023/12/19 08:45:49;;;;;;;;;;;;;;;5.51;56.12;98847.38;5002395;28;19983;-63
2023/12/19 08:48:37;;;;;;;;;;;;;;;5.49;56.34;98833.34;5005944;28;20226;-63
2023/12/19 08:51:26;;;;;;;;;;;;;;;5.47;56.47;98831.97;5007209;28;20020;-63
2023/12/19 08:54:14;;;;;;;;;;;;;;;5.45;56.50;98831.41;5003172;28;19940;-62
2023/12/19 08:57:03;;;;;;;;;;;;;;;5.39;56.53;98833.25;5008748;28;20534;-62
2023/12/19 08:59:51;;;;;;;;;;;;;;;5.38;56.69;98828.94;5008747;28;19971;-63
2023/12/19 09:02:41;;;;;;;;;;;;;;;5.36;56.37;98824.84;5006414;28;19929;-62
2023/12/19 09:05:29;;;;;;;;;;;;;;;5.39;56.39;98817.06;5002954;28;20309;-64
2023/12/19 09:08:18;;;;;;;;;;;;;;;5.39;55.80;98827.84;5004198;28;19925;-62
2023/12/19 09:11:08;;;;;;;;;;;;;;;5.37;56.40;98839.94;5006823;28;20463;-62
2023/12/19 09:13:56;;;;;;;;;;;;;;;5.35;56.79;98840.19;5005932;28;19932;-64
2023/12/19 09:16:44;;;;;;;;;;;;;;;5.41;56.71;98844.56;5005810;28;19925;-62
2023/12/19 09:19:34;;;;;;;;;;;;;;;5.48;56.13;98830.88;5005561;28;20071;-63
2023/12/19 09:22:23;;;;;;;;;;;;;;;5.58;55.40;98820.19;5004245;28;20470;-62
2023/12/19 09:25:14;;;;;;;;;;;;;;;5.69;54.55;98821.91;5009889;28;20327;-62
2023/12/19 09:28:04;;;;;;;;;;;;;;;5.82;54.80;98815.28;5008590;28;19937;-63
2023/12/19 09:30:52;;;;;;;;;;;;;;;5.90;54.19;98803.19;5005784;28;19941;-62
2023/12/19 09:33:40;;;;;;;;;;;;;;;5.96;53.99;98796.78;5009779;28;19929;-63
2023/12/19 09:36:28;;;;;;;;;;;;;;;6.02;54.09;98798.47;5004968;28;20020;-62
2023/12/19 09:39:17;;;;;;;;;;;;;;;6.14;53.27;98801.78;5003519;28;19932;-62
2023/12/19 09:42:08;;;;;;;;;;;;;;;6.17;53.27;98798.53;5004732;28;20004;-62
2023/12/19 09:44:56;;;;;;;;;;;;;;;6.24;53.44;98795.63;5006197;28;19936;-64
2023/12/19 09:47:45;;;;;;;;;;;;;;;6.33;53.24;98777.03;5009300;28;19925;-61
2023/12/19 09:50:33;;;;;;;;;;;;;;;6.38;53.50;98777.06;5004922;28;19934;-63
2023/12/19 09:53:21;;;;;;;;;;;;;;;6.42;53.70;98780.88;5003193;28;19929;-63
2023/12/19 09:56:15;;;;;;;;;;;;;;;6.47;52.41;98783.59;5005833;28;19929;-63
2023/12/19 09:59:06;;;;;;;;;;;;;;;6.32;52.25;98770.03;5006037;28;19929;-65
2023/12/19 10:01:54;;;;;;;;;;;;;;;6.40;53.02;98772.25;5005817;28;20379;-64
2023/12/19 10:04:43;;;;;;;;;;;;;;;6.39;53.09;98771.44;5000284;28;19933;-63
2023/12/19 10:07:31;;;;;;;;;;;;;;;6.38;52.23;98774.38;5004960;28;20028;-64
2023/12/19 10:10:27;;;;;;;;;;;;;;;6.32;52.48;98765.44;5004945;28;20350;-62
2023/12/19 10:13:19;;;;;;;;;;;;;;;6.35;53.02;98764.13;5003178;28;19973;-63
2023/12/19 10:16:12;;;;;;;;;;;;;;;6.34;53.22;98763.31;5004927;28;19961;-63
2023/12/19 10:19:26;;;;;;;;;;;;;;;6.38;52.94;98760.88;5006549;28;19933;-63
2023/12/19 10:22:16;;;;;;;;;;;;;;;6.42;52.26;98764.69;4998851;28;19980;-64
2023/12/19 10:25:07;;;;;;;;;;;;;;;6.44;52.55;98760.63;5004411;28;19933;-63
2023/12/19 10:28:04;;;;;;;;;;;;;;;6.51;52.46;98744.22;5003311;28;19926;-62
2023/12/19 10:30:57;;;;;;;;;;;;;;;6.56;52.13;98738.84;5006444;28;19962;-64
2023/12/19 10:33:48;;;;;;;;;;;;;;;6.61;52.84;98744.25;4999998;28;19930;-63
2023/12/19 10:36:37;;;;;;;;;;;;;;;6.66;52.43;98736.16;5003895;28;19936;-63
2023/12/19 10:39:24;;;;;;;;;;;;;;;6.70;52.37;98723.75;5000182;28;19934;-65
2023/12/19 10:42:13;;;;;;;;;;;;;;;6.76;51.56;98719.97;5005960;28;19996;-63
2023/12/19 10:45:01;;;;;;;;;;;;;;;6.79;51.43;98705.94;5005237;28;19925;-64
2023/12/19 10:47:49;;;;;;;;;;;;;;;6.81;51.72;98703.78;4998646;28;19926;-63
2023/12/19 10:50:39;;;;;;;;;;;;;;;6.92;51.48;98706.50;4997981;28;19930;-63
2023/12/19 10:53:27;;;;;;;;;;;;;;;6.95;50.52;98708.69;4999353;28;19972;-62
2023/12/19 10:56:15;;;;;;;;;;;;;;;7.02;51.41;98711.91;5003858;28;19925;-62
2023/12/19 10:59:05;;;;;;;;;;;;;;;7.06;50.29;98704.91;5000415;28;19934;-64
2023/12/19 11:01:53;;;;;;;;;;;;;;;7.11;50.29;98702.22;5004531;28;20272;-62
2023/12/19 11:04:43;;;;;;;;;;;;;;;7.15;49.80;98697.91;5000377;28;20383;-62
2023/12/19 11:07:33;;;;;;;;;;;;;;;7.15;50.35;98695.19;4999234;28;19930;-62
2023/12/19 11:10:22;;;;;;;;;;;;;;;7.13;49.87;98689.22;4996830;28;20403;-63
2023/12/19 11:13:10;;;;;;;;;;;;;;;7.07;50.65;98680.31;5008854;28;20023;-63
2023/12/19 11:16:00;;;;;;;;;;;;;;;7.05;50.31;98677.09;4999769;28;20296;-63
2023/12/19 11:18:51;;;;;;;;;;;;;;;7.01;50.83;98675.19;5003146;28;20077;-65
2023/12/19 11:21:41;;;;;;;;;;;;;;;7.01;50.77;98672.47;5004654;28;19956;-63
2023/12/19 11:24:33;;;;;;;;;;;;;;;6.98;51.12;98683.84;5003110;28;20040;-65
2023/12/19 11:27:22;;;;;;;;;;;;;;;6.93;51.29;98689.25;5003850;28;19927;-65
2023/12/19 11:30:25;;;;;;;;;;;;;;;6.94;51.40;98694.38;5004286;28;19937;-62
2023/12/19 11:33:13;;;;;;;;;;;;;;;6.92;51.21;98677.59;4997623;28;19937;-63
2023/12/19 11:36:10;;;;;;;;;;;;;;;6.91;51.38;98669.78;5006799;28;19929;-63
2023/12/19 11:39:17;;;;;;;;;;;;;;;6.91;51.85;98667.88;5003097;28;19929;-63
2023/12/19 11:42:07;;;;;;;;;;;;;;;6.92;51.46;98665.97;5003369;28;20087;-63
2023/12/19 11:44:56;;;;;;;;;;;;;;;6.92;51.79;98655.19;5002630;28;19965;-63
2023/12/19 11:47:44;;;;;;;;;;;;;;;6.87;52.07;98641.66;5005480;28;20391;-63
2023/12/19 11:50:45;;;;;;;;;;;;;;;6.84;52.00;98634.94;4995896;28;20003;-65
2023/12/19 11:53:33;;;;;;;;;;;;;;;6.85;52.16;98627.63;5001765;28;20477;-63
2023/12/19 11:56:21;;;;;;;;;;;;;;;6.82;52.28;98626.28;5007038;28;19983;-63
2023/12/19 11:59:11;;;;;;;;;;;;;;;6.77;51.83;98626.28;4999562;28;19948;-63
2023/12/19 12:01:59;;;;;;;;;;;;;;;6.80;52.16;98631.94;5001066;28;20417;-63
2023/12/19 12:04:47;;;;;;;;;;;;;;;6.86;52.22;98616.53;5006185;28;19936;-64
2023/12/19 12:07:40;;;;;;;;;;;;;;;6.98;51.42;98616.31;5006996;28;20673;-65
2023/12/19 12:10:28;;;;;;;;;;;;;;;7.10;51.19;98608.72;4996728;28;19937;-62
2023/12/19 12:13:17;;;;;;;;;;;;;;;7.20;50.14;98611.44;5003593;28;19933;-62
2023/12/19 12:16:07;;;;;;;;;;;;;;;7.33;50.25;98602.75;5004462;28;19940;-64
2023/12/19 12:18:55;;;;;;;;;;;;;;;7.42;49.69;98580.56;5002490;28;19925;-64
2023/12/19 12:21:44;;;;;;;;;;;;;;;7.50;50.15;98577.28;5003271;28;20047;-64
2023/12/19 12:24:32;;;;;;;;;;;;;;;7.62;48.75;98575.13;5004992;28;20460;-63
2023/12/19 12:27:28;;;;;;;;;;;;;;;7.63;49.21;98571.31;5002187;28;20311;-62
2023/12/19 12:30:16;;;;;;;;;;;;;;;7.64;47.77;98553.19;5006224;28;20329;-62
2023/12/19 12:33:06;;;;;;;;;;;;;;;7.61;48.20;98541.81;5006219;28;19929;-63
2023/12/19 12:35:54;;;;;;;;;;;;;;;7.70;47.51;98533.97;5005377;28;20391;-63
2023/12/19 12:38:42;;;;;;;;;;;;;;;7.69;46.74;98513.41;5008466;28;19925;-65
2023/12/19 12:41:31;;;;;;;;;;;;;;;7.76;47.05;98513.91;5010714;28;19925;-63
2023/12/19 12:44:19;;;;;;;;;;;;;;;7.75;44.47;98508.78;5003805;28;20622;-63
2023/12/19 12:47:08;;;;;;;;;;;;;;;7.75;45.40;98495.25;5006091;28;19933;-64
2023/12/19 12:50:04;;;;;;;;;;;;;;;7.80;44.60;98497.94;5011283;28;19961;-62
2023/12/19 12:52:53;;;;;;;;;;;;;;;7.84;44.39;98496.31;5003597;28;20067;-64
2023/12/19 12:55:41;;;;;;;;;;;;;;;7.81;46.30;98483.31;5010308;28;19964;-63
2023/12/19 12:58:29;;;;;;;;;;;;;;;7.84;44.76;98486.28;5003048;28;19926;-65
2023/12/19 13:01:17;;;;;;;;;;;;;;;7.77;45.10;98485.78;5008992;28;20075;-61
2023/12/19 13:04:07;;;;;;;;;;;;;;;7.75;45.45;98479.84;5008992;28;19933;-63
2023/12/19 13:06:56;;;;;;;;;;;;;;;7.72;45.37;98472.28;5007162;28;19925;-63
2023/12/19 13:09:44;;;;;;;;;;;;;;;7.74;46.14;98461.19;5009217;28;19926;-62
2023/12/19 13:12:33;;;;;;;;;;;;;;;7.82;46.16;98469.50;5008039;28;19930;-63
2023/12/19 13:15:21;;;;;;;;;;;;;;;7.84;46.23;98461.94;5006968;28;19968;-64
2023/12/19 13:18:10;;;;;;;;;;;;;;;7.91;46.35;98445.41;5006756;28;19929;-63
2023/12/19 13:20:58;;;;;;;;;;;;;;;7.95;46.82;98437.53;5006800;28;19929;-63
2023/12/19 13:23:47;;;;;;;;;;;;;;;8.06;45.54;98423.66;5004393;28;20027;-65
2023/12/19 13:26:49;;;;;;;;;;;;;;;8.07;45.03;98435.28;5004195;28;20375;-65
2023/12/19 13:29:37;;;;;;;;;;;;;;;8.05;45.23;98432.84;5007485;28;19933;-64
2023/12/19 13:32:28;;;;;;;;;;;;;;;8.08;44.97;98426.88;5005268;28;20056;-64
2023/12/19 13:35:16;;;;;;;;;;;;;;;8.14;44.68;98424.94;5003339;28;19929;-63
2023/12/19 13:38:05;;;;;;;;;;;;;;;8.20;44.85;98431.09;5001383;28;19930;-66
2023/12/19 13:40:54;;;;;;;;;;;;;;;8.29;44.22;98424.00;4996919;28;19937;-64
2023/12/19 13:43:42;;;;;;;;;;;;;;;8.38;42.42;98423.16;5001976;28;20417;-64
2023/12/19 13:46:30;;;;;;;;;;;;;;;8.30;42.89;98429.13;5003366;28;19983;-64
2023/12/19 13:49:19;;;;;;;;;;;;;;;8.21;43.62;98411.91;5002883;28;19967;-63
2023/12/19 13:52:07;;;;;;;;;;;;;;;8.25;43.42;98418.34;5005679;28;19933;-64
2023/12/19 13:54:55;;;;;;;;;;;;;;;8.29;43.83;98419.41;5003839;28;20407;-64
2023/12/19 13:57:45;;;;;;;;;;;;;;;8.32;43.26;98413.44;5002061;28;19925;-64
2023/12/19 14:00:33;;;;;;;;;;;;;;;8.40;42.96;98426.38;5004175;28;20300;-64
2023/12/19 14:03:22;;;;;;;;;;;;;;;8.36;43.59;98414.50;5003691;28;19933;-63
2023/12/19 14:06:10;;;;;;;;;;;;;;;8.30;43.49;98404.75;5004212;28;20004;-64
2023/12/19 14:08:58;;;;;;;;;;;;;;;8.27;43.74;98413.47;5003074;28;19934;-64
2023/12/19 14:11:47;;;;;;;;;;;;;;;8.30;43.41;98407.47;5001008;28;20011;-63
2023/12/19 14:14:36;;;;;;;;;;;;;;;8.29;44.22;98400.44;5001194;28;20376;-63
2023/12/19 14:17:24;;;;;;;;;;;;;;;8.29;44.66;98399.66;5005080;28;19925;-64
2023/12/19 14:20:13;;;;;;;;;;;;;;;8.22;43.99;98391.84;5006476;28;20397;-63
2023/12/19 14:23:02;;;;;;;;;;;;;;;8.10;44.46;98388.72;5009087;28;19930;-64
2023/12/19 14:25:50;;;;;;;;;;;;;;;8.09;44.80;98393.28;5002834;28;20419;-64
2023/12/19 14:28:41;;;;;;;;;;;;;;;8.09;45.28;98392.50;5001838;28;19932;-62
2023/12/19 14:31:32;;;;;;;;;;;;;;;8.10;44.77;98394.13;5004122;28;19925;-65
2023/12/19 14:34:20;;;;;;;;;;;;;;;8.15;45.90;98396.81;5008603;28;19936;-62
2023/12/19 14:37:08;;;;;;;;;;;;;;;8.24;45.13;98395.06;5006777;28;19956;-62
2023/12/19 14:39:57;;;;;;;;;;;;;;;8.34;44.92;98400.41;5004371;28;19926;-63
2023/12/19 14:42:46;;;;;;;;;;;;;;;8.36;44.83;98395.56;5003955;28;19925;-63
2023/12/19 14:45:34;;;;;;;;;;;;;;;8.40;44.98;98398.50;5002162;28;19925;-63
2023/12/19 14:48:23;;;;;;;;;;;;;;;8.39;45.50;98392.25;5003990;28;20027;-63
2023/12/19 14:51:12;;;;;;;;;;;;;;;8.46;45.50;98391.13;5001562;28;19937;-62
2023/12/19 14:54:00;;;;;;;;;;;;;;;8.42;45.19;98387.38;5004374;28;20306;-62